sensor_id;sensor_type;location;lat;lon;timestamp;P1;durP1;ratioP1;P2;durP2;ratioP2
34725;SDS011;20951;50.818;4.344;2024-03-23T00:53:06;18.27;;;4.88;;
34725;SDS011;20951;50.818;4.344;2024-03-23T00:55:32;16.02;;;4.78;;
34725;SDS011;20951;50.818;4.344;2024-03-23T00:57:58;18.65;;;5.32;;
34725;SDS011;20951;50.818;4.344;2024-03-23T01:00:24;15.75;;;4.90;;
34725;SDS011;20951;50.818;4.344;2024-03-23T01:02:50;13.90;;;5.50;;
34725;SDS011;20951;50.818;4.344;2024-03-23T01:05:15;19.98;;;5.47;;
34725;SDS011;20951;50.818;4.344;2024-03-23T01:07:41;18.95;;;5.40;;
34725;SDS011;20951;50.818;4.344;2024-03-23T01:10:07;16.42;;;5.15;;
34725;SDS011;20951;50.818;4.344;2024-03-23T01:12:33;16.80;;;6.18;;
34725;SDS011;20951;50.818;4.344;2024-03-23T01:14:59;17.08;;;6.20;;
34725;SDS011;20951;50.818;4.344;2024-03-23T01:17:24;19.60;;;6.80;;
34725;SDS011;20951;50.818;4.344;2024-03-23T01:19:50;20.70;;;6.07;;
34725;SDS011;20951;50.818;4.344;2024-03-23T01:22:16;18.25;;;6.70;;
34725;SDS011;20951;50.818;4.344;2024-03-23T01:24:42;19.90;;;7.07;;
34725;SDS011;20951;50.818;4.344;2024-03-23T01:27:08;18.15;;;6.43;;
34725;SDS011;20951;50.818;4.344;2024-03-23T01:29:34;18.70;;;7.03;;
34725;SDS011;20951;50.818;4.344;2024-03-23T01:32:00;18.67;;;7.50;;
34725;SDS011;20951;50.818;4.344;2024-03-23T01:34:25;17.88;;;8.40;;
34725;SDS011;20951;50.818;4.344;2024-03-23T01:36:53;21.38;;;7.60;;
34725;SDS011;20951;50.818;4.344;2024-03-23T01:39:18;20.77;;;8.02;;
34725;SDS011;20951;50.818;4.344;2024-03-23T01:41:44;19.52;;;8.13;;
34725;SDS011;20951;50.818;4.344;2024-03-23T01:44:10;21.50;;;8.00;;
34725;SDS011;20951;50.818;4.344;2024-03-23T01:46:36;20.63;;;8.25;;
34725;SDS011;20951;50.818;4.344;2024-03-23T01:49:03;22.77;;;8.95;;
34725;SDS011;20951;50.818;4.344;2024-03-23T01:51:32;21.02;;;9.52;;
34725;SDS011;20951;50.818;4.344;2024-03-23T01:53:59;21.77;;;9.60;;
34725;SDS011;20951;50.818;4.344;2024-03-23T01:56:28;22.27;;;9.32;;
34725;SDS011;20951;50.818;4.344;2024-03-23T01:58:55;24.92;;;9.95;;
34725;SDS011;20951;50.818;4.344;2024-03-23T02:01:21;24.13;;;9.65;;
34725;SDS011;20951;50.818;4.344;2024-03-23T02:03:47;25.30;;;10.55;;
34725;SDS011;20951;50.818;4.344;2024-03-23T02:06:13;22.10;;;9.65;;
34725;SDS011;20951;50.818;4.344;2024-03-23T02:08:39;23.08;;;10.35;;
34725;SDS011;20951;50.818;4.344;2024-03-23T02:11:05;28.45;;;11.77;;
34725;SDS011;20951;50.818;4.344;2024-03-23T02:13:31;23.42;;;11.38;;
34725;SDS011;20951;50.818;4.344;2024-03-23T02:15:57;31.38;;;11.82;;
34725;SDS011;20951;50.818;4.344;2024-03-23T02:18:23;27.25;;;12.02;;
34725;SDS011;20951;50.818;4.344;2024-03-23T02:20:49;25.58;;;12.40;;
34725;SDS011;20951;50.818;4.344;2024-03-23T02:23:15;24.20;;;11.80;;
34725;SDS011;20951;50.818;4.344;2024-03-23T02:25:41;27.48;;;12.60;;
34725;SDS011;20951;50.818;4.344;2024-03-23T02:28:07;32.83;;;12.68;;
34725;SDS011;20951;50.818;4.344;2024-03-23T02:30:33;34.05;;;13.52;;
34725;SDS011;20951;50.818;4.344;2024-03-23T02:32:59;31.15;;;13.77;;
34725;SDS011;20951;50.818;4.344;2024-03-23T02:35:25;32.92;;;14.38;;
34725;SDS011;20951;50.818;4.344;2024-03-23T02:37:51;33.75;;;14.43;;
34725;SDS011;20951;50.818;4.344;2024-03-23T02:40:20;27.55;;;14.18;;
34725;SDS011;20951;50.818;4.344;2024-03-23T02:42:45;34.70;;;14.90;;
34725;SDS011;20951;50.818;4.344;2024-03-23T02:45:11;36.78;;;14.80;;
34725;SDS011;20951;50.818;4.344;2024-03-23T02:47:37;38.25;;;15.25;;
34725;SDS011;20951;50.818;4.344;2024-03-23T02:50:03;34.80;;;14.55;;
34725;SDS011;20951;50.818;4.344;2024-03-23T02:52:29;38.33;;;15.52;;
34725;SDS011;20951;50.818;4.344;2024-03-23T02:54:56;33.72;;;15.05;;
34725;SDS011;20951;50.818;4.344;2024-03-23T02:57:22;35.13;;;15.63;;
34725;SDS011;20951;50.818;4.344;2024-03-23T02:59:47;34.92;;;15.55;;
34725;SDS011;20951;50.818;4.344;2024-03-23T03:02:13;36.10;;;15.63;;
34725;SDS011;20951;50.818;4.344;2024-03-23T03:04:40;33.45;;;15.25;;
34725;SDS011;20951;50.818;4.344;2024-03-23T03:07:06;38.28;;;16.15;;
34725;SDS011;20951;50.818;4.344;2024-03-23T03:09:32;37.70;;;15.80;;
34725;SDS011;20951;50.818;4.344;2024-03-23T03:12:00;40.30;;;16.73;;
34725;SDS011;20951;50.818;4.344;2024-03-23T03:14:28;42.35;;;16.77;;
34725;SDS011;20951;50.818;4.344;2024-03-23T03:16:54;34.90;;;17.08;;
34725;SDS011;20951;50.818;4.344;2024-03-23T03:19:20;38.13;;;17.50;;
34725;SDS011;20951;50.818;4.344;2024-03-23T03:21:46;42.38;;;17.73;;
34725;SDS011;20951;50.818;4.344;2024-03-23T03:24:13;37.40;;;17.52;;
34725;SDS011;20951;50.818;4.344;2024-03-23T03:26:39;37.03;;;17.63;;
34725;SDS011;20951;50.818;4.344;2024-03-23T03:29:04;34.58;;;17.10;;
34725;SDS011;20951;50.818;4.344;2024-03-23T03:31:30;39.92;;;17.98;;
34725;SDS011;20951;50.818;4.344;2024-03-23T03:33:56;39.53;;;17.65;;
34725;SDS011;20951;50.818;4.344;2024-03-23T03:36:22;44.40;;;19.02;;
34725;SDS011;20951;50.818;4.344;2024-03-23T03:38:48;36.00;;;17.60;;
34725;SDS011;20951;50.818;4.344;2024-03-23T03:41:13;37.88;;;18.15;;
34725;SDS011;20951;50.818;4.344;2024-03-23T03:43:40;42.70;;;18.23;;
34725;SDS011;20951;50.818;4.344;2024-03-23T03:46:06;40.55;;;18.88;;
34725;SDS011;20951;50.818;4.344;2024-03-23T03:48:35;34.78;;;17.52;;
34725;SDS011;20951;50.818;4.344;2024-03-23T03:51:02;36.58;;;19.13;;
34725;SDS011;20951;50.818;4.344;2024-03-23T03:53:28;40.80;;;18.85;;
34725;SDS011;20951;50.818;4.344;2024-03-23T03:55:54;37.05;;;19.55;;
34725;SDS011;20951;50.818;4.344;2024-03-23T03:58:20;40.03;;;18.98;;
34725;SDS011;20951;50.818;4.344;2024-03-23T04:00:46;38.58;;;17.77;;
34725;SDS011;20951;50.818;4.344;2024-03-23T04:03:11;35.92;;;16.02;;
34725;SDS011;20951;50.818;4.344;2024-03-23T04:05:37;29.35;;;16.05;;
34725;SDS011;20951;50.818;4.344;2024-03-23T04:08:03;33.40;;;15.45;;
34725;SDS011;20951;50.818;4.344;2024-03-23T04:10:29;29.15;;;14.05;;
34725;SDS011;20951;50.818;4.344;2024-03-23T04:12:55;29.38;;;13.82;;
34725;SDS011;20951;50.818;4.344;2024-03-23T04:15:21;29.83;;;13.75;;
34725;SDS011;20951;50.818;4.344;2024-03-23T04:17:47;29.30;;;12.57;;
34725;SDS011;20951;50.818;4.344;2024-03-23T04:20:13;31.98;;;12.40;;
34725;SDS011;20951;50.818;4.344;2024-03-23T04:22:41;29.23;;;11.10;;
34725;SDS011;20951;50.818;4.344;2024-03-23T04:25:08;28.08;;;11.85;;
34725;SDS011;20951;50.818;4.344;2024-03-23T04:27:38;29.80;;;11.50;;
34725;SDS011;20951;50.818;4.344;2024-03-23T04:30:05;21.85;;;9.88;;
34725;SDS011;20951;50.818;4.344;2024-03-23T04:32:36;23.13;;;10.00;;
34725;SDS011;20951;50.818;4.344;2024-03-23T04:35:02;25.20;;;9.95;;
34725;SDS011;20951;50.818;4.344;2024-03-23T04:37:32;23.17;;;9.27;;
34725;SDS011;20951;50.818;4.344;2024-03-23T04:39:59;25.40;;;10.45;;
34725;SDS011;20951;50.818;4.344;2024-03-23T04:42:26;23.65;;;9.38;;
34725;SDS011;20951;50.818;4.344;2024-03-23T04:44:52;23.63;;;9.80;;
34725;SDS011;20951;50.818;4.344;2024-03-23T04:47:18;27.75;;;10.70;;
34725;SDS011;20951;50.818;4.344;2024-03-23T04:49:44;25.67;;;10.10;;
34725;SDS011;20951;50.818;4.344;2024-03-23T04:52:10;24.60;;;11.10;;
34725;SDS011;20951;50.818;4.344;2024-03-23T04:54:36;25.20;;;10.13;;
34725;SDS011;20951;50.818;4.344;2024-03-23T04:57:02;22.08;;;8.68;;
34725;SDS011;20951;50.818;4.344;2024-03-23T04:59:28;23.27;;;7.88;;
34725;SDS011;20951;50.818;4.344;2024-03-23T05:01:54;22.95;;;8.20;;
34725;SDS011;20951;50.818;4.344;2024-03-23T05:04:19;20.70;;;8.48;;
34725;SDS011;20951;50.818;4.344;2024-03-23T05:06:45;23.95;;;8.35;;
34725;SDS011;20951;50.818;4.344;2024-03-23T05:09:11;24.50;;;9.38;;
34725;SDS011;20951;50.818;4.344;2024-03-23T05:11:37;19.90;;;8.20;;
34725;SDS011;20951;50.818;4.344;2024-03-23T05:14:03;23.13;;;9.10;;
34725;SDS011;20951;50.818;4.344;2024-03-23T05:16:29;23.27;;;9.45;;
34725;SDS011;20951;50.818;4.344;2024-03-23T05:18:55;20.25;;;8.65;;
34725;SDS011;20951;50.818;4.344;2024-03-23T05:21:21;24.65;;;9.60;;
34725;SDS011;20951;50.818;4.344;2024-03-23T05:23:47;24.77;;;9.38;;
34725;SDS011;20951;50.818;4.344;2024-03-23T05:26:13;19.35;;;9.15;;
34725;SDS011;20951;50.818;4.344;2024-03-23T05:28:39;31.95;;;8.70;;
34725;SDS011;20951;50.818;4.344;2024-03-23T05:31:05;26.98;;;9.10;;
34725;SDS011;20951;50.818;4.344;2024-03-23T05:33:31;21.30;;;8.32;;
34725;SDS011;20951;50.818;4.344;2024-03-23T05:35:57;26.45;;;9.32;;
34725;SDS011;20951;50.818;4.344;2024-03-23T05:38:24;21.30;;;8.00;;
34725;SDS011;20951;50.818;4.344;2024-03-23T05:40:54;29.70;;;8.35;;
34725;SDS011;20951;50.818;4.344;2024-03-23T05:43:24;20.20;;;7.20;;
34725;SDS011;20951;50.818;4.344;2024-03-23T05:45:54;25.17;;;7.35;;
34725;SDS011;20951;50.818;4.344;2024-03-23T05:48:19;17.63;;;6.03;;
34725;SDS011;20951;50.818;4.344;2024-03-23T05:50:45;20.38;;;5.95;;
34725;SDS011;20951;50.818;4.344;2024-03-23T05:53:11;20.73;;;6.38;;
34725;SDS011;20951;50.818;4.344;2024-03-23T05:55:38;16.50;;;4.93;;
34725;SDS011;20951;50.818;4.344;2024-03-23T05:58:03;21.60;;;5.40;;
34725;SDS011;20951;50.818;4.344;2024-03-23T06:00:30;17.58;;;4.93;;
34725;SDS011;20951;50.818;4.344;2024-03-23T06:02:55;17.70;;;4.10;;
34725;SDS011;20951;50.818;4.344;2024-03-23T06:05:22;17.00;;;4.05;;
34725;SDS011;20951;50.818;4.344;2024-03-23T06:07:48;19.15;;;4.30;;
34725;SDS011;20951;50.818;4.344;2024-03-23T06:10:15;16.40;;;3.97;;
34725;SDS011;20951;50.818;4.344;2024-03-23T06:12:41;14.05;;;3.63;;
34725;SDS011;20951;50.818;4.344;2024-03-23T06:15:07;19.23;;;3.70;;
34725;SDS011;20951;50.818;4.344;2024-03-23T06:17:38;15.98;;;4.15;;
34725;SDS011;20951;50.818;4.344;2024-03-23T06:20:04;20.15;;;3.67;;
34725;SDS011;20951;50.818;4.344;2024-03-23T06:22:33;16.90;;;3.47;;
34725;SDS011;20951;50.818;4.344;2024-03-23T06:24:59;15.25;;;3.50;;
34725;SDS011;20951;50.818;4.344;2024-03-23T06:27:25;18.38;;;3.45;;
34725;SDS011;20951;50.818;4.344;2024-03-23T06:29:51;14.07;;;3.90;;
34725;SDS011;20951;50.818;4.344;2024-03-23T06:32:17;19.60;;;4.03;;
34725;SDS011;20951;50.818;4.344;2024-03-23T06:34:43;17.50;;;3.78;;
34725;SDS011;20951;50.818;4.344;2024-03-23T06:37:10;18.73;;;4.47;;
34725;SDS011;20951;50.818;4.344;2024-03-23T06:39:36;17.92;;;3.60;;
34725;SDS011;20951;50.818;4.344;2024-03-23T06:42:02;18.27;;;3.78;;
34725;SDS011;20951;50.818;4.344;2024-03-23T06:44:28;17.67;;;4.45;;
34725;SDS011;20951;50.818;4.344;2024-03-23T06:46:55;17.80;;;4.32;;
34725;SDS011;20951;50.818;4.344;2024-03-23T06:49:22;14.40;;;3.72;;
34725;SDS011;20951;50.818;4.344;2024-03-23T06:51:48;19.75;;;4.43;;
34725;SDS011;20951;50.818;4.344;2024-03-23T06:54:14;19.00;;;4.25;;
34725;SDS011;20951;50.818;4.344;2024-03-23T06:56:41;17.48;;;4.40;;
34725;SDS011;20951;50.818;4.344;2024-03-23T06:59:07;16.13;;;4.20;;
34725;SDS011;20951;50.818;4.344;2024-03-23T07:01:33;19.58;;;4.75;;
34725;SDS011;20951;50.818;4.344;2024-03-23T07:03:59;15.00;;;4.05;;
34725;SDS011;20951;50.818;4.344;2024-03-23T07:06:26;18.00;;;4.55;;
34725;SDS011;20951;50.818;4.344;2024-03-23T07:08:54;20.25;;;4.60;;
34725;SDS011;20951;50.818;4.344;2024-03-23T07:11:23;17.50;;;3.83;;
34725;SDS011;20951;50.818;4.344;2024-03-23T07:13:50;24.27;;;4.30;;
34725;SDS011;20951;50.818;4.344;2024-03-23T07:16:16;18.55;;;4.18;;
34725;SDS011;20951;50.818;4.344;2024-03-23T07:18:42;23.80;;;4.65;;
34725;SDS011;20951;50.818;4.344;2024-03-23T07:21:08;20.48;;;4.25;;
34725;SDS011;20951;50.818;4.344;2024-03-23T07:23:34;16.77;;;4.95;;
34725;SDS011;20951;50.818;4.344;2024-03-23T07:26:01;18.35;;;4.30;;
34725;SDS011;20951;50.818;4.344;2024-03-23T07:28:28;20.52;;;4.00;;
34725;SDS011;20951;50.818;4.344;2024-03-23T07:31:09;21.77;;;3.92;;
34725;SDS011;20951;50.818;4.344;2024-03-23T07:36:09;20.92;;;4.55;;
34725;SDS011;20951;50.818;4.344;2024-03-23T07:38:35;14.68;;;3.70;;
34725;SDS011;20951;50.818;4.344;2024-03-23T07:43:30;19.02;;;4.47;;
34725;SDS011;20951;50.818;4.344;2024-03-23T07:45:57;18.10;;;3.92;;
34725;SDS011;20951;50.818;4.344;2024-03-23T07:48:23;11.88;;;3.67;;
34725;SDS011;20951;50.818;4.344;2024-03-23T07:51:00;19.33;;;4.60;;
34725;SDS011;20951;50.818;4.344;2024-03-23T07:53:29;15.15;;;3.88;;
34725;SDS011;20951;50.818;4.344;2024-03-23T07:56:00;16.42;;;4.18;;
34725;SDS011;20951;50.818;4.344;2024-03-23T07:58:27;14.10;;;4.00;;
34725;SDS011;20951;50.818;4.344;2024-03-23T08:00:54;19.13;;;4.10;;
34725;SDS011;20951;50.818;4.344;2024-03-23T08:03:19;14.98;;;3.85;;
34725;SDS011;20951;50.818;4.344;2024-03-23T08:05:46;20.00;;;4.07;;
34725;SDS011;20951;50.818;4.344;2024-03-23T08:08:12;16.55;;;3.90;;
34725;SDS011;20951;50.818;4.344;2024-03-23T08:10:46;17.58;;;3.58;;
34725;SDS011;20951;50.818;4.344;2024-03-23T08:13:15;12.48;;;3.75;;
34725;SDS011;20951;50.818;4.344;2024-03-23T08:15:41;16.05;;;3.90;;
34725;SDS011;20951;50.818;4.344;2024-03-23T08:18:07;19.35;;;4.10;;
34725;SDS011;20951;50.818;4.344;2024-03-23T08:20:34;19.05;;;4.60;;
34725;SDS011;20951;50.818;4.344;2024-03-23T08:22:59;19.63;;;4.38;;
34725;SDS011;20951;50.818;4.344;2024-03-23T08:25:25;16.08;;;4.18;;
34725;SDS011;20951;50.818;4.344;2024-03-23T08:27:51;18.92;;;4.35;;
34725;SDS011;20951;50.818;4.344;2024-03-23T08:30:18;18.42;;;4.45;;
34725;SDS011;20951;50.818;4.344;2024-03-23T08:32:44;16.08;;;3.90;;
34725;SDS011;20951;50.818;4.344;2024-03-23T08:35:11;22.13;;;4.70;;
34725;SDS011;20951;50.818;4.344;2024-03-23T08:37:36;17.25;;;4.20;;
34725;SDS011;20951;50.818;4.344;2024-03-23T08:40:02;15.88;;;3.90;;
34725;SDS011;20951;50.818;4.344;2024-03-23T08:42:29;12.63;;;3.58;;
34725;SDS011;20951;50.818;4.344;2024-03-23T08:44:55;16.70;;;3.60;;
34725;SDS011;20951;50.818;4.344;2024-03-23T08:47:21;13.32;;;3.97;;
34725;SDS011;20951;50.818;4.344;2024-03-23T08:49:47;18.45;;;4.43;;
34725;SDS011;20951;50.818;4.344;2024-03-23T08:52:13;17.55;;;2.90;;
34725;SDS011;20951;50.818;4.344;2024-03-23T08:54:38;17.10;;;3.03;;
34725;SDS011;20951;50.818;4.344;2024-03-23T08:57:04;14.40;;;3.03;;
34725;SDS011;20951;50.818;4.344;2024-03-23T08:59:30;12.75;;;3.00;;
34725;SDS011;20951;50.818;4.344;2024-03-23T09:01:56;12.48;;;3.15;;
34725;SDS011;20951;50.818;4.344;2024-03-23T09:04:21;17.50;;;3.65;;
34725;SDS011;20951;50.818;4.344;2024-03-23T09:06:47;12.25;;;2.50;;
34725;SDS011;20951;50.818;4.344;2024-03-23T09:09:13;14.90;;;2.60;;
34725;SDS011;20951;50.818;4.344;2024-03-23T09:11:39;16.52;;;3.03;;
34725;SDS011;20951;50.818;4.344;2024-03-23T09:14:05;9.52;;;2.75;;
34725;SDS011;20951;50.818;4.344;2024-03-23T09:16:31;13.57;;;3.28;;
34725;SDS011;20951;50.818;4.344;2024-03-23T09:18:58;11.45;;;2.60;;
34725;SDS011;20951;50.818;4.344;2024-03-23T09:21:24;12.32;;;2.65;;
34725;SDS011;20951;50.818;4.344;2024-03-23T09:23:49;15.60;;;3.13;;
34725;SDS011;20951;50.818;4.344;2024-03-23T09:26:15;11.23;;;2.97;;
34725;SDS011;20951;50.818;4.344;2024-03-23T09:28:41;13.27;;;3.33;;
34725;SDS011;20951;50.818;4.344;2024-03-23T09:31:08;12.40;;;3.40;;
34725;SDS011;20951;50.818;4.344;2024-03-23T09:33:39;11.20;;;3.13;;
34725;SDS011;20951;50.818;4.344;2024-03-23T09:36:05;11.90;;;2.95;;
34725;SDS011;20951;50.818;4.344;2024-03-23T09:38:31;13.13;;;3.13;;
34725;SDS011;20951;50.818;4.344;2024-03-23T09:40:57;14.40;;;3.25;;
34725;SDS011;20951;50.818;4.344;2024-03-23T09:43:24;11.80;;;2.65;;
34725;SDS011;20951;50.818;4.344;2024-03-23T09:45:50;9.18;;;2.75;;
34725;SDS011;20951;50.818;4.344;2024-03-23T09:48:16;10.93;;;2.45;;
34725;SDS011;20951;50.818;4.344;2024-03-23T09:50:43;10.93;;;2.55;;
34725;SDS011;20951;50.818;4.344;2024-03-23T09:53:10;9.13;;;2.70;;
34725;SDS011;20951;50.818;4.344;2024-03-23T09:55:36;10.57;;;2.83;;
34725;SDS011;20951;50.818;4.344;2024-03-23T09:58:03;12.93;;;2.72;;
34725;SDS011;20951;50.818;4.344;2024-03-23T10:00:33;10.95;;;2.65;;
34725;SDS011;20951;50.818;4.344;2024-03-23T10:03:02;9.60;;;2.60;;
34725;SDS011;20951;50.818;4.344;2024-03-23T10:05:31;11.02;;;2.95;;
34725;SDS011;20951;50.818;4.344;2024-03-23T10:07:59;8.88;;;2.40;;
34725;SDS011;20951;50.818;4.344;2024-03-23T10:10:42;8.93;;;2.80;;
34725;SDS011;20951;50.818;4.344;2024-03-23T10:13:09;7.13;;;2.20;;
34725;SDS011;20951;50.818;4.344;2024-03-23T10:15:36;11.13;;;2.80;;
34725;SDS011;20951;50.818;4.344;2024-03-23T10:18:18;11.45;;;2.58;;
34725;SDS011;20951;50.818;4.344;2024-03-23T10:20:47;11.35;;;2.53;;
34725;SDS011;20951;50.818;4.344;2024-03-23T10:23:15;8.75;;;2.40;;
34725;SDS011;20951;50.818;4.344;2024-03-23T10:25:42;13.43;;;3.00;;
34725;SDS011;20951;50.818;4.344;2024-03-23T10:28:08;11.63;;;2.65;;
34725;SDS011;20951;50.818;4.344;2024-03-23T10:30:34;11.45;;;2.50;;
34725;SDS011;20951;50.818;4.344;2024-03-23T10:33:07;11.35;;;2.47;;
34725;SDS011;20951;50.818;4.344;2024-03-23T10:35:33;9.60;;;2.70;;
34725;SDS011;20951;50.818;4.344;2024-03-23T10:38:00;11.90;;;2.83;;
34725;SDS011;20951;50.818;4.344;2024-03-23T10:40:27;12.68;;;2.63;;
34725;SDS011;20951;50.818;4.344;2024-03-23T10:42:55;9.20;;;2.25;;
34725;SDS011;20951;50.818;4.344;2024-03-23T10:45:23;10.35;;;2.42;;
34725;SDS011;20951;50.818;4.344;2024-03-23T10:47:49;9.93;;;2.67;;
34725;SDS011;20951;50.818;4.344;2024-03-23T10:50:16;13.50;;;2.25;;
34725;SDS011;20951;50.818;4.344;2024-03-23T10:52:44;8.90;;;1.90;;
34725;SDS011;20951;50.818;4.344;2024-03-23T10:55:12;8.90;;;2.08;;
34725;SDS011;20951;50.818;4.344;2024-03-23T10:57:45;9.50;;;1.83;;
34725;SDS011;20951;50.818;4.344;2024-03-23T11:00:16;8.77;;;2.08;;
34725;SDS011;20951;50.818;4.344;2024-03-23T11:02:42;11.20;;;2.40;;
34725;SDS011;20951;50.818;4.344;2024-03-23T11:08:03;7.45;;;2.08;;
34725;SDS011;20951;50.818;4.344;2024-03-23T11:10:30;6.68;;;2.40;;
34725;SDS011;20951;50.818;4.344;2024-03-23T11:12:57;8.13;;;2.10;;
34725;SDS011;20951;50.818;4.344;2024-03-23T11:15:23;7.10;;;1.90;;
34725;SDS011;20951;50.818;4.344;2024-03-23T11:18:02;7.40;;;2.00;;
34725;SDS011;20951;50.818;4.344;2024-03-23T11:20:33;8.98;;;2.20;;
34725;SDS011;20951;50.818;4.344;2024-03-23T11:22:59;12.90;;;2.75;;
34725;SDS011;20951;50.818;4.344;2024-03-23T11:25:26;11.55;;;2.67;;
34725;SDS011;20951;50.818;4.344;2024-03-23T11:27:56;12.40;;;2.13;;
34725;SDS011;20951;50.818;4.344;2024-03-23T11:30:37;9.25;;;1.90;;
34725;SDS011;20951;50.818;4.344;2024-03-23T11:33:04;14.57;;;2.65;;
34725;SDS011;20951;50.818;4.344;2024-03-23T11:35:30;9.05;;;2.33;;
34725;SDS011;20951;50.818;4.344;2024-03-23T11:38:08;7.75;;;1.95;;
34725;SDS011;20951;50.818;4.344;2024-03-23T11:43:13;8.43;;;2.03;;
34725;SDS011;20951;50.818;4.344;2024-03-23T11:45:47;7.43;;;1.80;;
34725;SDS011;20951;50.818;4.344;2024-03-23T11:48:17;10.67;;;2.17;;
34725;SDS011;20951;50.818;4.344;2024-03-23T11:50:53;8.60;;;2.08;;
34725;SDS011;20951;50.818;4.344;2024-03-23T11:53:20;7.60;;;1.92;;
34725;SDS011;20951;50.818;4.344;2024-03-23T11:55:54;6.10;;;1.73;;
34725;SDS011;20951;50.818;4.344;2024-03-23T11:58:22;10.05;;;2.20;;
34725;SDS011;20951;50.818;4.344;2024-03-23T12:00:49;10.10;;;2.30;;
34725;SDS011;20951;50.818;4.344;2024-03-23T12:03:17;9.68;;;1.83;;
34725;SDS011;20951;50.818;4.344;2024-03-23T12:05:47;9.30;;;2.22;;
34725;SDS011;20951;50.818;4.344;2024-03-23T12:10:50;10.32;;;2.28;;
34725;SDS011;20951;50.818;4.344;2024-03-23T12:13:18;9.60;;;2.08;;
34725;SDS011;20951;50.818;4.344;2024-03-23T12:15:46;7.97;;;1.88;;
34725;SDS011;20951;50.818;4.344;2024-03-23T12:18:13;8.43;;;1.80;;
34725;SDS011;20951;50.818;4.344;2024-03-23T12:20:39;11.35;;;2.28;;
34725;SDS011;20951;50.818;4.344;2024-03-23T12:23:08;8.25;;;1.95;;
34725;SDS011;20951;50.818;4.344;2024-03-23T12:25:38;12.68;;;2.30;;
34725;SDS011;20951;50.818;4.344;2024-03-23T12:28:05;8.35;;;1.75;;
34725;SDS011;20951;50.818;4.344;2024-03-23T12:30:40;9.43;;;1.90;;
34725;SDS011;20951;50.818;4.344;2024-03-23T12:33:06;7.10;;;2.30;;
34725;SDS011;20951;50.818;4.344;2024-03-23T12:35:32;12.77;;;2.28;;
34725;SDS011;20951;50.818;4.344;2024-03-23T12:37:58;9.63;;;2.58;;
34725;SDS011;20951;50.818;4.344;2024-03-23T12:40:24;13.13;;;2.47;;
34725;SDS011;20951;50.818;4.344;2024-03-23T12:42:49;11.93;;;2.85;;
34725;SDS011;20951;50.818;4.344;2024-03-23T12:45:15;9.52;;;2.92;;
34725;SDS011;20951;50.818;4.344;2024-03-23T12:47:41;10.40;;;3.40;;
34725;SDS011;20951;50.818;4.344;2024-03-23T12:50:07;10.50;;;2.38;;
34725;SDS011;20951;50.818;4.344;2024-03-23T12:52:34;6.43;;;2.20;;
34725;SDS011;20951;50.818;4.344;2024-03-23T12:55:01;9.68;;;2.30;;
34725;SDS011;20951;50.818;4.344;2024-03-23T12:57:27;9.20;;;2.08;;
34725;SDS011;20951;50.818;4.344;2024-03-23T12:59:53;7.47;;;1.85;;
34725;SDS011;20951;50.818;4.344;2024-03-23T13:02:19;5.07;;;1.38;;
34725;SDS011;20951;50.818;4.344;2024-03-23T13:04:49;5.85;;;1.52;;
34725;SDS011;20951;50.818;4.344;2024-03-23T13:07:16;7.82;;;1.58;;
34725;SDS011;20951;50.818;4.344;2024-03-23T13:09:42;6.78;;;1.40;;
34725;SDS011;20951;50.818;4.344;2024-03-23T13:12:08;4.20;;;1.30;;
34725;SDS011;20951;50.818;4.344;2024-03-23T13:14:34;4.40;;;1.42;;
34725;SDS011;20951;50.818;4.344;2024-03-23T13:17:00;4.72;;;1.25;;
34725;SDS011;20951;50.818;4.344;2024-03-23T13:19:27;7.93;;;1.50;;
34725;SDS011;20951;50.818;4.344;2024-03-23T13:21:56;6.32;;;1.40;;
34725;SDS011;20951;50.818;4.344;2024-03-23T13:24:25;6.50;;;1.17;;
34725;SDS011;20951;50.818;4.344;2024-03-23T13:26:52;4.70;;;1.05;;
34725;SDS011;20951;50.818;4.344;2024-03-23T13:29:18;5.97;;;1.20;;
34725;SDS011;20951;50.818;4.344;2024-03-23T13:31:47;6.30;;;1.55;;
34725;SDS011;20951;50.818;4.344;2024-03-23T13:34:14;4.72;;;1.15;;
34725;SDS011;20951;50.818;4.344;2024-03-23T13:36:41;5.47;;;1.17;;
34725;SDS011;20951;50.818;4.344;2024-03-23T13:39:07;4.03;;;1.10;;
34725;SDS011;20951;50.818;4.344;2024-03-23T13:41:38;6.07;;;1.55;;
34725;SDS011;20951;50.818;4.344;2024-03-23T13:44:05;6.82;;;1.30;;
34725;SDS011;20951;50.818;4.344;2024-03-23T13:46:32;5.07;;;1.45;;
34725;SDS011;20951;50.818;4.344;2024-03-23T13:48:58;5.35;;;1.30;;
34725;SDS011;20951;50.818;4.344;2024-03-23T13:51:24;6.85;;;1.48;;
34725;SDS011;20951;50.818;4.344;2024-03-23T13:53:54;5.53;;;1.73;;
34725;SDS011;20951;50.818;4.344;2024-03-23T13:56:21;4.78;;;1.33;;
34725;SDS011;20951;50.818;4.344;2024-03-23T13:58:50;8.50;;;1.65;;
34725;SDS011;20951;50.818;4.344;2024-03-23T14:01:16;10.32;;;1.58;;
34725;SDS011;20951;50.818;4.344;2024-03-23T14:03:42;7.97;;;1.50;;
34725;SDS011;20951;50.818;4.344;2024-03-23T14:06:09;6.32;;;1.25;;
34725;SDS011;20951;50.818;4.344;2024-03-23T14:08:38;5.18;;;1.08;;
34725;SDS011;20951;50.818;4.344;2024-03-23T14:11:08;4.85;;;1.30;;
34725;SDS011;20951;50.818;4.344;2024-03-23T14:13:34;5.30;;;1.33;;
34725;SDS011;20951;50.818;4.344;2024-03-23T14:16:00;4.60;;;1.20;;
34725;SDS011;20951;50.818;4.344;2024-03-23T14:18:26;6.72;;;1.58;;
34725;SDS011;20951;50.818;4.344;2024-03-23T14:20:56;6.68;;;1.63;;
34725;SDS011;20951;50.818;4.344;2024-03-23T14:23:26;9.27;;;1.83;;
34725;SDS011;20951;50.818;4.344;2024-03-23T14:25:52;8.30;;;2.00;;
34725;SDS011;20951;50.818;4.344;2024-03-23T14:28:19;5.78;;;1.40;;
34725;SDS011;20951;50.818;4.344;2024-03-23T14:30:45;6.57;;;1.60;;
34725;SDS011;20951;50.818;4.344;2024-03-23T14:33:10;6.82;;;1.20;;
34725;SDS011;20951;50.818;4.344;2024-03-23T14:35:37;6.68;;;1.40;;
34725;SDS011;20951;50.818;4.344;2024-03-23T14:38:03;4.70;;;1.30;;
34725;SDS011;20951;50.818;4.344;2024-03-23T14:40:29;7.22;;;1.70;;
34725;SDS011;20951;50.818;4.344;2024-03-23T14:42:55;7.97;;;1.52;;
34725;SDS011;20951;50.818;4.344;2024-03-23T14:45:21;8.93;;;1.92;;
34725;SDS011;20951;50.818;4.344;2024-03-23T14:47:49;7.13;;;1.55;;
34725;SDS011;20951;50.818;4.344;2024-03-23T14:50:15;8.65;;;1.90;;
34725;SDS011;20951;50.818;4.344;2024-03-23T14:52:42;7.22;;;1.70;;
34725;SDS011;20951;50.818;4.344;2024-03-23T14:55:10;7.53;;;1.65;;
34725;SDS011;20951;50.818;4.344;2024-03-23T14:57:36;6.82;;;1.60;;
34725;SDS011;20951;50.818;4.344;2024-03-23T15:00:04;7.10;;;1.75;;
34725;SDS011;20951;50.818;4.344;2024-03-23T15:02:35;7.68;;;1.90;;
34725;SDS011;20951;50.818;4.344;2024-03-23T15:05:01;8.13;;;1.90;;
34725;SDS011;20951;50.818;4.344;2024-03-23T15:07:29;6.30;;;1.80;;
34725;SDS011;20951;50.818;4.344;2024-03-23T15:09:57;9.65;;;2.10;;
34725;SDS011;20951;50.818;4.344;2024-03-23T15:12:23;8.65;;;1.90;;
34725;SDS011;20951;50.818;4.344;2024-03-23T15:14:49;7.25;;;2.03;;
34725;SDS011;20951;50.818;4.344;2024-03-23T15:17:14;10.15;;;2.25;;
34725;SDS011;20951;50.818;4.344;2024-03-23T15:19:40;8.30;;;2.03;;
34725;SDS011;20951;50.818;4.344;2024-03-23T15:22:09;7.78;;;1.77;;
34725;SDS011;20951;50.818;4.344;2024-03-23T15:24:35;6.95;;;1.67;;
34725;SDS011;20951;50.818;4.344;2024-03-23T15:27:02;7.88;;;1.90;;
34725;SDS011;20951;50.818;4.344;2024-03-23T15:29:28;10.57;;;2.10;;
34725;SDS011;20951;50.818;4.344;2024-03-23T15:31:54;8.10;;;1.80;;
34725;SDS011;20951;50.818;4.344;2024-03-23T15:34:20;8.77;;;1.77;;
34725;SDS011;20951;50.818;4.344;2024-03-23T15:36:49;7.22;;;1.75;;
34725;SDS011;20951;50.818;4.344;2024-03-23T15:39:18;7.18;;;1.52;;